createdAt,value
2023-03-31T08:45:36.329Z,14.11
2023-03-31T08:47:40.914Z,14.11
2023-03-31T08:49:54.621Z,13.78
2023-03-31T08:52:01.750Z,13.96
2023-03-31T08:54:08.165Z,14.00
2023-03-31T08:56:17.131Z,13.94
2023-03-31T08:58:28.414Z,14.03
2023-03-31T09:01:00.396Z,14.12
2023-03-31T09:03:27.278Z,14.28
2023-03-31T09:05:52.751Z,14.24
2023-03-31T09:08:35.624Z,14.38
2023-03-31T09:10:49.861Z,14.52
2023-03-31T09:12:59.510Z,14.49
2023-03-31T09:15:09.838Z,14.30
2023-03-31T09:17:41.164Z,14.44
2023-03-31T09:19:56.188Z,14.43
2023-03-31T09:22:01.659Z,14.47
2023-03-31T09:24:12.436Z,14.63
2023-03-31T09:26:27.391Z,14.56
2023-03-31T09:28:39.866Z,14.59
2023-03-31T09:30:42.864Z,14.56
2023-03-31T09:32:48.271Z,14.69
2023-03-31T09:34:57.339Z,14.58
2023-03-31T09:36:59.942Z,14.74
2023-03-31T09:39:02.339Z,14.96
2023-03-31T09:41:05.499Z,15.31
2023-03-31T09:43:25.090Z,15.64
2023-03-31T09:45:28.612Z,15.72
2023-03-31T09:47:47.495Z,16.02
2023-03-31T09:49:54.132Z,16.54
2023-03-31T09:52:26.786Z,16.87
2023-03-31T09:54:54.328Z,17.10
2023-03-31T09:56:56.840Z,17.03
2023-03-31T09:59:02.927Z,17.05
2023-03-31T10:01:11.745Z,17.17
2023-03-31T10:03:14.608Z,17.04
2023-03-31T10:05:23.073Z,17.13
2023-03-31T10:07:26.404Z,17.28
2023-03-31T10:09:31.815Z,17.10
2023-03-31T10:11:34.277Z,17.29
2023-03-31T10:13:49.391Z,17.20
2023-03-31T10:15:54.028Z,17.16
2023-03-31T10:17:59.255Z,16.98
2023-03-31T10:20:19.700Z,17.28
2023-03-31T10:22:22.272Z,17.33
2023-03-31T10:24:25.135Z,17.06
2023-03-31T10:26:28.955Z,16.94
2023-03-31T10:28:35.341Z,17.03
2023-03-31T10:30:40.681Z,17.02
2023-03-31T10:32:44.206Z,17.47
2023-03-31T10:34:46.899Z,17.10
2023-03-31T10:36:52.158Z,17.67
2023-03-31T10:38:55.972Z,17.69
2023-03-31T10:40:59.699Z,17.81
2023-03-31T10:43:27.039Z,17.91
2023-03-31T10:45:37.680Z,17.55
2023-03-31T10:47:41.501Z,17.35
2023-03-31T10:49:45.013Z,16.54
2023-03-31T10:52:01.623Z,16.25
2023-03-31T10:54:04.589Z,16.49
2023-03-31T10:56:26.101Z,16.53
2023-03-31T10:58:43.750Z,16.69
2023-03-31T11:01:20.760Z,16.80
2023-03-31T11:03:52.663Z,16.93
2023-03-31T11:06:09.948Z,17.05
2023-03-31T11:08:21.522Z,17.41
2023-03-31T11:10:32.879Z,17.57
2023-03-31T11:12:44.045Z,17.32
2023-03-31T11:15:16.523Z,17.77
2023-03-31T11:17:25.367Z,18.32
2023-03-31T11:20:07.258Z,18.14
2023-03-31T11:22:34.677Z,18.47
2023-03-31T11:25:16.208Z,18.18
2023-03-31T11:27:42.655Z,18.63
2023-03-31T11:30:05.359Z,19.21
2023-03-31T11:32:36.028Z,19.12
2023-03-31T11:34:53.847Z,19.53
2023-03-31T11:37:19.637Z,19.30
2023-03-31T11:39:47.419Z,19.26
2023-03-31T11:41:53.770Z,18.67
2023-03-31T11:44:05.106Z,18.84
2023-03-31T11:46:07.574Z,19.03
2023-03-31T11:48:59.898Z,18.97
2023-03-31T11:51:07.378Z,18.49
2023-03-31T11:53:21.012Z,18.74
2023-03-31T11:55:27.496Z,18.17
2023-03-31T11:57:40.172Z,18.60
2023-03-31T11:59:44.159Z,20.18
2023-03-31T12:01:59.255Z,20.02
2023-03-31T12:04:10.007Z,19.74
2023-03-31T12:06:19.088Z,19.62
2023-03-31T12:08:33.643Z,19.45
2023-03-31T12:10:38.576Z,19.34
2023-03-31T12:12:56.236Z,19.80
2023-03-31T12:15:07.630Z,20.20
2023-03-31T12:17:16.139Z,20.12
2023-03-31T12:19:36.340Z,19.97
2023-03-31T12:21:43.672Z,20.09
2023-03-31T12:23:46.564Z,20.20
2023-03-31T12:26:18.332Z,20.82
2023-03-31T12:28:21.818Z,21.54
2023-03-31T12:30:39.266Z,21.73
2023-03-31T12:32:47.472Z,21.15
2023-03-31T12:34:56.975Z,21.13
2023-03-31T12:37:49.307Z,21.24
2023-03-31T12:40:26.966Z,21.93
2023-03-31T12:42:48.093Z,24.31
2023-03-31T12:45:15.131Z,27.24
2023-03-31T12:47:45.792Z,28.45
2023-03-31T12:49:50.342Z,27.32
2023-03-31T12:51:59.352Z,26.47
2023-03-31T12:54:18.350Z,25.43
2023-03-31T12:56:21.894Z,23.91
2023-03-31T12:58:27.572Z,23.83
2023-03-31T13:00:30.748Z,24.99
2023-03-31T13:02:33.740Z,25.12
2023-03-31T13:04:38.007Z,24.07
2023-03-31T13:06:41.559Z,22.41
2023-03-31T13:09:03.814Z,21.27
2023-03-31T13:11:06.291Z,20.78
2023-03-31T13:13:17.214Z,23.36
2023-03-31T13:15:20.102Z,23.02
2023-03-31T13:17:27.478Z,24.44
2023-03-31T13:19:36.676Z,22.99
2023-03-31T13:21:54.662Z,23.31
2023-03-31T13:24:03.282Z,23.20
2023-03-31T13:26:06.968Z,22.13
2023-03-31T13:28:18.493Z,21.54
2023-03-31T13:30:53.199Z,21.18
2023-03-31T13:33:21.157Z,20.45
2023-03-31T13:35:31.902Z,21.19
2023-03-31T13:37:47.562Z,21.22
2023-03-31T13:40:25.567Z,21.35
2023-03-31T13:43:07.061Z,20.78
2023-03-31T13:45:21.720Z,20.60
2023-03-31T13:47:58.328Z,19.41
2023-03-31T13:50:13.037Z,19.16
2023-03-31T13:52:26.600Z,18.88
2023-03-31T13:55:07.078Z,18.93
2023-03-31T13:57:18.195Z,18.70
2023-03-31T13:59:26.190Z,18.74
2023-03-31T14:01:46.898Z,18.58
2023-03-31T14:03:55.808Z,18.58
2023-03-31T14:06:36.221Z,18.60
2023-03-31T14:08:38.692Z,18.80
2023-03-31T14:10:43.140Z,18.66
2023-03-31T14:12:47.811Z,18.81
2023-03-31T14:14:54.682Z,18.92
2023-03-31T14:17:00.889Z,18.61
2023-03-31T14:19:27.479Z,18.47
2023-03-31T14:21:39.472Z,18.48
2023-03-31T14:24:17.918Z,18.68
2023-03-31T14:26:38.690Z,18.81
2023-03-31T14:29:15.163Z,19.83
2023-03-31T14:31:35.682Z,21.50
2023-03-31T14:33:41.019Z,22.10
2023-03-31T14:35:53.235Z,22.48
2023-03-31T14:37:57.116Z,22.32
2023-03-31T14:40:02.155Z,21.54
2023-03-31T14:42:10.520Z,21.06
2023-03-31T14:44:16.227Z,20.79
2023-03-31T14:46:22.433Z,19.94
2023-03-31T14:48:24.905Z,19.08
2023-03-31T14:50:34.983Z,19.04
2023-03-31T14:52:37.476Z,18.51
2023-03-31T14:54:41.345Z,18.35
2023-03-31T14:56:49.680Z,18.22
2023-03-31T14:58:54.302Z,18.30
2023-03-31T15:00:56.899Z,18.25
2023-03-31T15:03:02.079Z,17.96
2023-03-31T15:05:07.978Z,17.76
2023-03-31T15:07:11.979Z,17.81
2023-03-31T15:09:21.321Z,18.01
2023-03-31T15:11:23.954Z,17.87
2023-03-31T15:13:44.332Z,17.74
2023-03-31T15:15:49.378Z,17.88
2023-03-31T15:17:51.948Z,17.51
2023-03-31T15:19:56.372Z,17.73
2023-03-31T15:22:10.764Z,17.94
2023-03-31T15:24:14.709Z,18.02
2023-03-31T15:26:20.802Z,17.93
2023-03-31T15:28:34.171Z,17.87
2023-03-31T15:30:37.631Z,17.83
2023-03-31T15:32:40.910Z,17.77
2023-03-31T15:34:46.577Z,17.71
2023-03-31T15:36:49.406Z,17.62
2023-03-31T15:38:59.541Z,17.14
2023-03-31T15:41:02.590Z,17.08
2023-03-31T15:43:24.484Z,16.87
2023-03-31T15:45:31.353Z,16.74
2023-03-31T15:47:38.712Z,16.88
2023-03-31T15:49:53.312Z,16.72
2023-03-31T15:51:57.044Z,16.53
2023-03-31T15:53:59.739Z,16.47
2023-03-31T15:56:02.292Z,16.43
2023-03-31T15:58:05.154Z,16.30
2023-03-31T16:00:34.274Z,16.33
2023-03-31T16:02:43.376Z,16.07
2023-03-31T16:04:49.759Z,16.07
2023-03-31T16:06:57.296Z,16.05
2023-03-31T16:09:08.253Z,16.02
2023-03-31T16:11:15.410Z,15.98
2023-03-31T16:13:23.974Z,16.10
2023-03-31T16:15:49.220Z,16.25
2023-03-31T16:17:59.985Z,16.15
2023-03-31T16:20:08.918Z,15.95
2023-03-31T16:22:17.815Z,15.83
2023-03-31T16:24:21.770Z,15.73
2023-03-31T16:26:27.942Z,15.57
2023-03-31T16:28:34.246Z,15.52
2023-03-31T16:30:39.840Z,15.38
2023-03-31T16:33:05.163Z,15.31
2023-03-31T16:35:08.431Z,15.29
2023-03-31T16:37:11.749Z,15.16
2023-03-31T16:39:14.212Z,15.14
2023-03-31T16:41:17.398Z,15.09
2023-03-31T16:43:22.241Z,14.99
2023-03-31T16:45:24.928Z,14.95
2023-03-31T16:47:35.163Z,14.93
2023-03-31T16:49:39.272Z,14.93
2023-03-31T16:51:41.979Z,14.91
2023-03-31T16:53:45.470Z,14.86
2023-03-31T16:55:48.168Z,14.89
2023-03-31T16:57:51.202Z,14.77
2023-03-31T16:59:54.730Z,14.76
2023-03-31T17:01:58.001Z,14.75
2023-03-31T17:04:01.144Z,14.62
2023-03-31T17:06:08.619Z,14.68
2023-03-31T17:08:12.513Z,14.66
2023-03-31T17:10:16.374Z,14.60
2023-03-31T17:12:19.503Z,14.47
2023-03-31T17:14:22.894Z,14.44
2023-03-31T17:16:32.818Z,14.39
2023-03-31T17:18:44.413Z,14.37
2023-03-31T17:20:46.948Z,14.36
2023-03-31T17:22:49.424Z,14.38
2023-03-31T17:24:57.285Z,14.23
2023-03-31T17:27:01.676Z,14.25
2023-03-31T17:29:04.970Z,14.19
2023-03-31T17:31:19.100Z,14.20
2023-03-31T17:33:23.723Z,14.27
2023-03-31T17:35:26.373Z,14.18
2023-03-31T17:37:29.723Z,14.24
2023-03-31T17:39:33.556Z,14.18
2023-03-31T17:41:37.591Z,14.16
2023-03-31T17:43:45.511Z,14.21
2023-03-31T17:45:48.700Z,14.31
2023-03-31T17:47:52.152Z,14.36
2023-03-31T17:49:55.501Z,14.28
2023-03-31T17:51:59.258Z,14.13
2023-03-31T17:54:03.750Z,14.28
2023-03-31T17:56:06.832Z,14.29
2023-03-31T17:58:14.016Z,14.32
2023-03-31T18:00:17.929Z,14.40
2023-03-31T18:02:21.173Z,14.33
2023-03-31T18:04:24.555Z,14.41
2023-03-31T18:06:28.063Z,14.41
2023-03-31T18:08:36.596Z,14.41
2023-03-31T18:10:41.151Z,14.50
2023-03-31T18:12:44.951Z,14.55
2023-03-31T18:14:48.964Z,14.53
2023-03-31T18:16:52.190Z,14.54
2023-03-31T18:18:55.866Z,14.60
2023-03-31T18:21:04.782Z,14.47
2023-03-31T18:23:07.565Z,14.51
2023-03-31T18:25:10.922Z,14.40
2023-03-31T18:27:13.902Z,14.29
2023-03-31T18:29:16.998Z,14.41
2023-03-31T18:31:22.562Z,14.37
2023-03-31T18:33:27.654Z,14.37
2023-03-31T18:35:31.211Z,14.29
2023-03-31T18:37:34.623Z,14.28
2023-03-31T18:39:38.826Z,14.36
2023-03-31T18:41:49.286Z,14.16
2023-03-31T18:43:52.943Z,14.06
2023-03-31T18:45:58.582Z,14.17
2023-03-31T18:48:03.863Z,14.13
2023-03-31T18:50:07.626Z,13.87
2023-03-31T18:52:11.452Z,13.99
2023-03-31T18:54:14.924Z,13.81
2023-03-31T18:56:18.011Z,13.77
2023-03-31T18:58:23.021Z,13.61
2023-03-31T19:00:30.450Z,13.42
2023-03-31T19:02:34.041Z,13.45
2023-03-31T19:04:38.642Z,13.51
2023-03-31T19:06:41.582Z,13.25
2023-03-31T19:08:45.183Z,13.46
2023-03-31T19:10:49.654Z,13.56
2023-03-31T19:12:53.654Z,13.51
2023-03-31T19:14:57.679Z,13.36
2023-03-31T19:17:01.971Z,13.35
2023-03-31T19:19:05.216Z,13.35
2023-03-31T19:21:32.842Z,13.21
2023-03-31T19:23:36.222Z,13.24
2023-03-31T19:25:39.905Z,13.19
2023-03-31T19:27:45.015Z,13.03
2023-03-31T19:29:49.435Z,12.98
2023-03-31T19:31:53.017Z,12.97
2023-03-31T19:33:58.283Z,12.90
2023-03-31T19:36:02.449Z,12.77
2023-03-31T19:38:06.102Z,12.61
2023-03-31T19:40:10.446Z,12.38
2023-03-31T19:42:16.583Z,12.36
2023-03-31T19:44:19.542Z,12.33
2023-03-31T19:46:23.180Z,12.25
2023-03-31T19:48:32.524Z,12.17
2023-03-31T19:50:35.801Z,12.17
2023-03-31T19:52:39.209Z,12.19
2023-03-31T19:54:43.099Z,12.13
2023-03-31T19:56:48.025Z,12.07
2023-03-31T19:58:54.121Z,11.99
2023-03-31T20:00:58.044Z,11.92
2023-03-31T20:03:02.573Z,11.77
2023-03-31T20:05:06.494Z,11.75
2023-03-31T20:07:10.018Z,11.64
2023-03-31T20:09:14.045Z,11.51
2023-03-31T20:11:17.820Z,11.41
2023-03-31T20:13:21.788Z,10.92
2023-03-31T20:15:26.432Z,10.53
2023-03-31T20:17:29.953Z,10.11
2023-03-31T20:19:33.677Z,10.16
2023-03-31T20:21:39.114Z,10.10
2023-03-31T20:23:44.288Z,10.13
2023-03-31T20:25:47.874Z,9.97
2023-03-31T20:27:51.984Z,10.06
2023-03-31T20:29:55.331Z,10.08
2023-03-31T20:31:58.842Z,10.21
2023-03-31T20:34:02.747Z,10.18
2023-03-31T20:36:17.196Z,10.30
2023-03-31T20:38:19.919Z,10.29
2023-03-31T20:40:23.197Z,10.37
2023-03-31T20:42:26.881Z,10.48
2023-03-31T20:44:30.561Z,10.58
2023-03-31T20:46:35.020Z,10.35
2023-03-31T20:48:45.012Z,10.34
2023-03-31T20:50:48.713Z,10.31
2023-03-31T20:52:51.382Z,10.41
2023-03-31T20:54:54.279Z,10.34
2023-03-31T20:56:57.212Z,9.98
2023-03-31T20:59:00.550Z,9.72
2023-03-31T21:01:04.062Z,9.57
2023-03-31T21:03:06.707Z,9.52
2023-03-31T21:05:09.668Z,9.33
2023-03-31T21:07:12.042Z,9.10
2023-03-31T21:09:16.404Z,8.92
2023-03-31T21:11:19.780Z,8.97
2023-03-31T21:13:22.113Z,8.99
2023-03-31T21:15:24.436Z,8.94
2023-03-31T21:17:27.129Z,8.96
2023-03-31T21:19:29.569Z,8.95
2023-03-31T21:21:32.005Z,8.89
2023-03-31T21:23:34.808Z,9.07
2023-03-31T21:25:37.096Z,9.11
2023-03-31T21:27:39.371Z,9.05
2023-03-31T21:29:41.976Z,9.11
2023-03-31T21:31:45.888Z,9.17
2023-03-31T21:33:48.395Z,9.27
2023-03-31T21:35:52.529Z,9.36
2023-03-31T21:37:54.801Z,9.55
2023-03-31T21:39:57.110Z,9.59
2023-03-31T21:42:00.176Z,9.65
2023-03-31T21:44:03.293Z,9.66
2023-03-31T21:46:06.807Z,9.76
2023-03-31T21:48:10.932Z,9.73
2023-03-31T21:50:13.285Z,9.81
2023-03-31T21:52:15.626Z,9.96
2023-03-31T21:54:18.300Z,10.08
2023-03-31T21:56:23.055Z,10.05
2023-03-31T21:58:28.798Z,10.14
2023-03-31T22:00:32.503Z,10.20
2023-03-31T22:02:35.153Z,10.25
2023-03-31T22:04:37.784Z,10.39
2023-03-31T22:06:40.372Z,10.38
2023-03-31T22:08:43.137Z,10.56
2023-03-31T22:10:56.210Z,10.51
2023-03-31T22:12:58.618Z,10.53
2023-03-31T22:15:01.258Z,10.60
2023-03-31T22:17:04.085Z,10.56
2023-03-31T22:19:07.486Z,10.56
2023-03-31T22:21:15.974Z,10.55
2023-03-31T22:23:20.654Z,10.53
2023-03-31T22:25:22.982Z,10.60
2023-03-31T22:27:25.608Z,10.56
2023-03-31T22:29:28.003Z,10.62
2023-03-31T22:31:30.948Z,10.63
2023-03-31T22:33:33.760Z,10.64
2023-03-31T22:35:36.468Z,10.60
2023-03-31T22:37:39.067Z,10.63
